Time;durP1;ratioP1;P1;durP2;ratioP2;P2;SDS_P1;SDS_P2;PMS_P1;PMS_P2;Temp;Humidity;BMP_temperature;BMP_pressure;BME280_temperature;BME280_humidity;BME280_pressure;Samples;Min_cycle;Max_cycle;Signal;HPM_P1;HPM_P2
2023/06/29 00:01:05;;;;;;;5.32;2.88;;;13.20;99.90;;;;;;4993533;28;20372;-68
2023/06/29 00:03:33;;;;;;;5.50;2.78;;;13.10;99.90;;;;;;4990385;28;20042;-68
2023/06/29 00:06:01;;;;;;;;;;;13.00;99.90;;;;;;4994158;28;20046;-68
2023/06/29 00:08:35;;;;;;;5.07;2.92;;;13.10;99.90;;;;;;4993682;28;20290;-68
2023/06/29 00:11:07;;;;;;;4.75;2.75;;;13.10;99.90;;;;;;4977554;28;20121;-68
2023/06/29 00:13:34;;;;;;;5.13;3.25;;;13.10;99.90;;;;;;4986932;28;20053;-68
2023/06/29 00:16:01;;;;;;;4.35;2.83;;;13.10;99.90;;;;;;4993550;28;20465;-68
2023/06/29 00:18:28;;;;;;;5.07;3.15;;;13.10;99.90;;;;;;4988602;28;20374;-68
2023/06/29 00:20:56;;;;;;;8.13;2.97;;;13.10;99.90;;;;;;4991755;28;20034;-68
2023/06/29 00:23:24;;;;;;;4.40;3.08;;;13.10;99.90;;;;;;4987041;28;20074;-68
2023/06/29 00:25:52;;;;;;;5.07;2.95;;;13.10;99.90;;;;;;4993410;28;20042;-68
2023/06/29 00:28:19;;;;;;;6.32;2.90;;;13.00;99.90;;;;;;4993011;28;20125;-68
2023/06/29 00:30:47;;;;;;;6.40;2.97;;;12.90;99.90;;;;;;4990135;28;20042;-68
2023/06/29 00:33:14;;;;;;;6.80;3.45;;;12.90;99.90;;;;;;4994420;28;20517;-68
2023/06/29 00:35:41;;;;;;;5.45;3.38;;;12.80;99.90;;;;;;4992058;28;20074;-68
2023/06/29 00:38:08;;;;;;;6.78;3.40;;;12.90;99.90;;;;;;4974804;28;20124;-68
2023/06/29 00:40:35;;;;;;;4.72;2.92;;;12.90;99.90;;;;;;4976032;28;20062;-68
2023/06/29 00:43:02;;;;;;;3.40;2.85;;;12.90;99.90;;;;;;4994211;28;20468;-68
2023/06/29 00:45:30;;;;;;;4.05;3.10;;;12.90;99.90;;;;;;4992178;28;20027;-68
2023/06/29 00:47:57;;;;;;;4.40;2.80;;;12.90;99.90;;;;;;4993287;28;20497;-68
2023/06/29 00:50:25;;;;;;;4.30;3.13;;;12.90;99.90;;;;;;4993780;28;20034;-68
2023/06/29 00:52:52;;;;;;;7.05;3.15;;;12.80;99.90;;;;;;4992809;28;20446;-68
2023/06/29 00:55:21;;;;;;;4.07;2.60;;;12.70;99.90;;;;;;4992182;28;20125;-68
2023/06/29 00:57:48;;;;;;;5.88;3.25;;;12.80;99.90;;;;;;4990857;28;20131;-68
2023/06/29 01:00:15;;;;;;;7.10;2.60;;;12.70;99.90;;;;;;4991471;28;20042;-68
2023/06/29 01:02:42;;;;;;;7.20;2.80;;;12.70;99.90;;;;;;4992452;28;20039;-68
2023/06/29 01:05:14;;;;;;;5.40;3.05;;;12.70;99.90;;;;;;4991800;28;20045;-68
2023/06/29 01:07:43;;;;;;;4.47;3.10;;;12.60;99.90;;;;;;4991299;28;20085;-68
2023/06/29 01:10:12;;;;;;;6.53;3.17;;;12.50;99.90;;;;;;4989452;28;20152;-68
2023/06/29 01:12:40;;;;;;;4.80;3.15;;;12.50;99.90;;;;;;4984357;28;20064;-68
2023/06/29 01:15:09;;;;;;;4.95;3.03;;;12.50;99.90;;;;;;4989659;28;20463;-68
2023/06/29 01:17:38;;;;;;;11.55;3.90;;;12.50;99.90;;;;;;4992362;28;20522;-68
2023/06/29 01:20:11;;;;;;;4.10;2.70;;;12.50;99.90;;;;;;4973581;28;20059;-68
2023/06/29 01:22:42;;;;;;;5.07;3.30;;;12.50;99.90;;;;;;4990685;28;20042;-68
2023/06/29 01:25:10;;;;;;;5.68;2.88;;;12.50;99.90;;;;;;4989534;28;20125;-68
2023/06/29 01:27:43;;;;;;;5.72;3.15;;;12.50;99.90;;;;;;4990663;28;20038;-68
2023/06/29 01:30:11;;;;;;;6.35;3.42;;;12.40;99.90;;;;;;4991730;28;20147;-68
2023/06/29 01:32:38;;;;;;;5.60;2.90;;;12.40;99.90;;;;;;4991186;28;20133;-68
2023/06/29 01:35:09;;;;;;;8.02;3.20;;;12.40;99.90;;;;;;4991896;28;20038;-68
2023/06/29 01:37:47;;;;;;;5.30;2.83;;;12.40;99.90;;;;;;4991126;28;20053;-68
2023/06/29 01:40:20;;;;;;;7.53;3.00;;;12.40;99.90;;;;;;4989932;28;20455;-68
2023/06/29 01:42:48;;;;;;;7.68;2.88;;;12.40;99.90;;;;;;4989840;28;20049;-68
2023/06/29 01:45:19;;;;;;;10.38;4.25;;;12.40;99.90;;;;;;4991979;28;20042;-68
2023/06/29 01:47:45;;;;;;;4.20;2.92;;;12.40;99.90;;;;;;4990054;28;20042;-68
2023/06/29 01:50:14;;;;;;;4.00;2.80;;;12.30;99.90;;;;;;4989694;28;20054;-68
2023/06/29 01:52:41;;;;;;;5.88;2.90;;;12.20;99.90;;;;;;4989913;28;20418;-68
2023/06/29 01:55:09;;;;;;;4.50;3.08;;;12.10;99.90;;;;;;4989389;28;20498;-68
2023/06/29 01:57:37;;;;;;;7.13;3.13;;;12.10;99.90;;;;;;4990725;28;20046;-68
2023/06/29 02:00:05;;;;;;;5.13;3.17;;;12.10;99.90;;;;;;4973205;28;20115;-68
2023/06/29 02:02:39;;;;;;;5.70;2.92;;;12.00;99.90;;;;;;4984284;28;20427;-68
2023/06/29 02:05:07;;;;;;;6.95;3.05;;;12.00;99.90;;;;;;4990352;28;20038;-68
2023/06/29 02:07:34;;;;;;;4.22;2.88;;;12.00;99.90;;;;;;4990379;28;20097;-68
2023/06/29 02:10:02;;;;;;;6.78;3.42;;;12.00;99.90;;;;;;4982301;28;20137;-68
2023/06/29 02:12:29;;;;;;;6.38;3.00;;;11.90;99.90;;;;;;4992694;28;20125;-68
2023/06/29 02:14:56;;;;;;;4.72;3.08;;;11.90;99.90;;;;;;4988969;28;20062;-68
2023/06/29 02:17:23;;;;;;;6.20;3.30;;;11.90;99.90;;;;;;4991319;28;20078;-68
2023/06/29 02:19:50;;;;;;;10.98;3.00;;;11.90;99.90;;;;;;4990040;28;20045;-68
2023/06/29 02:22:17;;;;;;;6.03;3.20;;;11.90;99.90;;;;;;4990027;28;20048;-68
2023/06/29 02:24:43;;;;;;;7.60;3.42;;;11.80;99.90;;;;;;4988037;28;20049;-68
2023/06/29 02:27:10;;;;;;;5.03;3.30;;;11.80;99.90;;;;;;4989980;28;20046;-68
2023/06/29 02:29:37;;;;;;;6.03;3.70;;;11.80;99.90;;;;;;4991202;28;20560;-68
2023/06/29 02:32:05;;;;;;;7.97;3.17;;;11.80;99.90;;;;;;4989712;28;20140;-68
2023/06/29 02:34:32;;;;;;;5.30;3.58;;;11.80;99.90;;;;;;4989463;28;20040;-68
2023/06/29 02:36:58;;;;;;;4.65;3.47;;;11.80;99.90;;;;;;4990244;28;20046;-68
2023/06/29 02:39:25;;;;;;;8.82;3.15;;;11.90;99.90;;;;;;4973619;28;20054;-68
2023/06/29 02:41:53;;;;;;;;;;;11.90;99.90;;;;;;4990268;28;20042;-68
2023/06/29 02:44:20;;;;;;;6.30;2.72;;;11.90;99.90;;;;;;4989611;28;19926;-68
2023/06/29 02:46:46;;;;;;;5.63;3.10;;;11.80;99.90;;;;;;4990399;28;20094;-68
2023/06/29 02:49:15;;;;;;;5.75;3.30;;;11.80;99.90;;;;;;4976845;28;20157;-68
2023/06/29 02:51:42;;;;;;;5.72;3.05;;;11.70;99.90;;;;;;4988490;28;20047;-68
2023/06/29 02:54:12;;;;;;;5.75;3.50;;;11.70;99.90;;;;;;4989407;28;20050;-68
2023/06/29 02:56:39;;;;;;;7.30;3.45;;;11.70;99.90;;;;;;4991804;28;20046;-68
2023/06/29 02:59:06;;;;;;;4.72;3.80;;;11.60;99.90;;;;;;4993662;28;20050;-68
2023/06/29 03:01:33;;;;;;;8.65;3.70;;;11.60;99.90;;;;;;4992642;28;20042;-68
2023/06/29 03:04:00;;;;;;;5.55;3.58;;;11.60;99.90;;;;;;4993370;28;20042;-68
2023/06/29 03:06:26;;;;;;;7.10;3.97;;;11.70;99.90;;;;;;4994306;28;20049;-68
2023/06/29 03:08:56;;;;;;;5.25;3.90;;;11.70;99.90;;;;;;4993614;28;20042;-68
2023/06/29 03:11:23;;;;;;;6.35;3.25;;;11.70;99.90;;;;;;4993300;28;20050;-68
2023/06/29 03:13:50;;;;;;;5.50;3.72;;;11.70;99.90;;;;;;4994572;28;20072;-68
2023/06/29 03:16:17;;;;;;;7.45;4.65;;;11.70;99.90;;;;;;4994044;28;20129;-68
2023/06/29 03:18:44;;;;;;;7.57;3.28;;;11.60;99.90;;;;;;4992426;28;20045;-68
2023/06/29 03:21:11;;;;;;;4.45;3.40;;;11.70;99.90;;;;;;4992792;28;20046;-68
2023/06/29 03:23:44;;;;;;;6.13;3.50;;;11.60;99.90;;;;;;4987198;28;20444;-68
2023/06/29 03:26:12;;;;;;;7.30;3.58;;;11.60;99.90;;;;;;4995149;28;20031;-68
2023/06/29 03:28:38;;;;;;;5.85;3.55;;;11.50;99.90;;;;;;4993653;28;20053;-68
2023/06/29 03:31:05;;;;;;;6.90;3.38;;;11.40;99.90;;;;;;4994620;28;20049;-68
2023/06/29 03:33:32;;;;;;;7.53;3.85;;;11.40;99.90;;;;;;4993947;28;20053;-68
2023/06/29 03:35:59;;;;;;;9.15;4.07;;;11.40;99.90;;;;;;4999713;28;20050;-68
2023/06/29 03:38:25;;;;;;;5.43;4.18;;;11.30;99.90;;;;;;4993327;28;20046;-68
2023/06/29 03:40:52;;;;;;;7.75;4.30;;;11.30;99.90;;;;;;4994241;28;20049;-68
2023/06/29 03:43:19;;;;;;;9.40;4.70;;;11.30;99.90;;;;;;4993891;28;20042;-68
2023/06/29 03:45:45;;;;;;;9.18;5.35;;;11.30;99.90;;;;;;4989339;28;20047;-68
2023/06/29 03:48:12;;;;;;;8.05;5.00;;;11.40;99.90;;;;;;4987333;28;20046;-67
2023/06/29 03:50:40;;;;;;;10.27;4.85;;;11.40;99.90;;;;;;4989173;28;20042;-67
2023/06/29 03:53:07;;;;;;;11.38;4.30;;;11.50;99.90;;;;;;4991000;28;20061;-67
2023/06/29 03:55:34;;;;;;;8.85;4.72;;;11.50;99.90;;;;;;4993500;28;20050;-67
2023/06/29 03:58:01;;;;;;;10.73;4.40;;;11.50;99.90;;;;;;4993301;28;20157;-67
2023/06/29 04:00:27;;;;;;;6.13;3.90;;;11.50;99.90;;;;;;4993602;28;20044;-67
2023/06/29 04:02:54;;;;;;;6.20;3.30;;;11.50;99.90;;;;;;4994044;28;20042;-67
2023/06/29 04:05:21;;;;;;;6.03;3.17;;;11.40;99.90;;;;;;4993450;28;20049;-67
2023/06/29 04:07:49;;;;;;;5.60;3.97;;;11.40;99.90;;;;;;4995730;28;20392;-67
2023/06/29 04:10:16;;;;;;;5.25;3.58;;;11.40;99.90;;;;;;4992414;28;20044;-67
2023/06/29 04:12:43;;;;;;;6.15;4.38;;;11.50;99.90;;;;;;4992871;28;20056;-67
2023/06/29 04:15:10;;;;;;;9.10;5.60;;;11.50;99.90;;;;;;4994228;28;20506;-67
2023/06/29 04:17:37;;;;;;;7.93;5.85;;;11.60;99.90;;;;;;4993601;28;20038;-67
2023/06/29 04:20:04;;;;;;;13.05;6.50;;;11.60;99.90;;;;;;4992854;28;20097;-67
2023/06/29 04:22:31;;;;;;;7.90;6.20;;;11.70;99.90;;;;;;4993602;28;20046;-67
2023/06/29 04:24:57;;;;;;;7.50;5.38;;;11.70;99.90;;;;;;4992817;28;20054;-67
2023/06/29 04:27:24;;;;;;;6.93;4.03;;;11.80;99.90;;;;;;4992592;28;20506;-67
2023/06/29 04:29:51;;;;;;;5.25;3.75;;;11.80;99.90;;;;;;4993989;28;20061;-67
2023/06/29 04:32:18;;;;;;;13.13;4.47;;;11.80;99.90;;;;;;4992862;28;20052;-67
2023/06/29 04:34:47;;;;;;;9.00;5.20;;;11.80;99.90;;;;;;4993509;28;20070;-67
2023/06/29 04:37:14;;;;;;;6.88;4.75;;;11.80;99.90;;;;;;4992742;28;20051;-67
2023/06/29 04:39:41;;;;;;;7.45;5.57;;;11.90;99.90;;;;;;4993719;28;20104;-67
2023/06/29 04:42:12;;;;;;;8.25;5.03;;;11.90;99.90;;;;;;4992525;28;20403;-67
2023/06/29 04:44:39;;;;;;;10.00;4.95;;;11.90;99.90;;;;;;4992621;28;20047;-67
2023/06/29 04:47:06;;;;;;;7.68;4.88;;;12.10;99.90;;;;;;4991997;28;20042;-67
2023/06/29 04:49:37;;;;;;;8.43;5.00;;;12.20;99.90;;;;;;4993450;28;20377;-67
2023/06/29 04:52:05;;;;;;;7.97;5.10;;;12.20;99.90;;;;;;4992942;28;20057;-67
2023/06/29 04:54:32;;;;;;;10.27;4.70;;;12.30;99.90;;;;;;4990670;28;20042;-67
2023/06/29 04:56:59;;;;;;;8.52;4.97;;;12.30;99.90;;;;;;4992292;28;20352;-67
2023/06/29 04:59:28;;;;;;;8.32;4.88;;;12.30;99.90;;;;;;4992293;28;20058;-67
2023/06/29 05:01:55;;;;;;;10.20;5.00;;;12.40;99.90;;;;;;4991841;28;20038;-67
2023/06/29 05:04:22;;;;;;;11.48;5.40;;;12.50;99.90;;;;;;4992522;28;20046;-67
2023/06/29 05:06:49;;;;;;;9.95;5.60;;;12.50;99.90;;;;;;4991071;28;20053;-67
2023/06/29 05:09:16;;;;;;;8.18;4.85;;;12.50;99.90;;;;;;4991651;28;20074;-67
2023/06/29 05:11:43;;;;;;;5.97;4.90;;;12.60;99.90;;;;;;4990272;28;20058;-67
2023/06/29 05:14:09;;;;;;;8.38;4.50;;;12.60;99.90;;;;;;4992627;28;20046;-67
2023/06/29 05:16:36;;;;;;;10.77;4.65;;;12.70;99.90;;;;;;4991236;28;20046;-67
2023/06/29 05:19:04;;;;;;;7.70;4.63;;;12.80;99.90;;;;;;4993212;28;20053;-67
2023/06/29 05:21:31;;;;;;;9.25;5.22;;;12.80;99.90;;;;;;4992421;28;20046;-67
2023/06/29 05:23:57;;;;;;;7.45;5.18;;;12.90;99.90;;;;;;4992340;28;20117;-67
2023/06/29 05:26:24;;;;;;;12.43;5.78;;;13.00;99.90;;;;;;4988645;28;20046;-66
2023/06/29 05:28:51;;;;;;;11.63;5.15;;;12.90;99.90;;;;;;4992236;28;20049;-66
2023/06/29 05:31:31;;;;;;;8.60;5.22;;;13.00;99.90;;;;;;4989854;28;20121;-66
2023/06/29 05:33:57;;;;;;;9.27;5.15;;;13.20;99.90;;;;;;4985529;28;20051;-66
2023/06/29 05:36:24;;;;;;;10.95;5.30;;;13.40;99.90;;;;;;4988366;28;20522;-66
2023/06/29 05:38:51;;;;;;;9.60;4.95;;;13.50;99.90;;;;;;4991156;28;20037;-66
2023/06/29 05:41:18;;;;;;;7.53;4.70;;;13.40;99.90;;;;;;4991808;28;20038;-66
2023/06/29 05:43:45;;;;;;;8.25;4.70;;;13.40;99.90;;;;;;4985587;28;20502;-66
2023/06/29 05:46:11;;;;;;;7.72;5.00;;;13.40;99.90;;;;;;4992361;28;20038;-66
2023/06/29 05:48:38;;;;;;;12.68;5.32;;;13.50;99.90;;;;;;4991933;28;20046;-66
2023/06/29 05:51:05;;;;;;;10.88;5.18;;;13.50;99.90;;;;;;4991446;28;20054;-66
2023/06/29 05:53:32;;;;;;;7.55;4.97;;;13.60;99.90;;;;;;4992068;28;20057;-66
2023/06/29 05:55:59;;;;;;;;;;;13.70;99.90;;;;;;4991478;28;20617;-66
2023/06/29 05:58:26;;;;;;;7.38;4.68;;;13.80;99.90;;;;;;4992240;28;19949;-66
2023/06/29 06:00:52;;;;;;;12.13;4.57;;;13.80;99.90;;;;;;4991446;28;20049;-66
2023/06/29 06:03:20;;;;;;;8.93;4.53;;;13.80;99.90;;;;;;4989764;28;20086;-66
2023/06/29 06:05:47;;;;;;;8.02;4.72;;;13.90;99.90;;;;;;4991992;28;20034;-66
2023/06/29 06:08:14;;;;;;;6.72;3.83;;;13.90;99.90;;;;;;4991381;28;20057;-66
2023/06/29 06:10:41;;;;;;;7.95;4.38;;;14.00;99.90;;;;;;4990372;28;20097;-66
2023/06/29 06:13:09;;;;;;;;;;;14.10;99.90;;;;;;4991301;28;20499;-66
2023/06/29 06:15:36;;;;;;;9.90;3.75;;;14.20;99.90;;;;;;4991636;28;19949;-66
2023/06/29 06:18:02;;;;;;;6.80;3.75;;;14.30;99.90;;;;;;4980229;28;20051;-66
2023/06/29 06:20:29;;;;;;;5.00;3.80;;;14.40;99.90;;;;;;4991223;28;20451;-66
2023/06/29 06:22:56;;;;;;;6.13;3.50;;;14.50;99.90;;;;;;4988702;28;20113;-66
2023/06/29 06:25:23;;;;;;;10.75;4.70;;;14.60;99.90;;;;;;4991545;28;20049;-66
2023/06/29 06:27:51;;;;;;;6.72;3.92;;;14.70;99.90;;;;;;4989865;28;20043;-66
2023/06/29 06:30:18;;;;;;;8.07;3.78;;;14.70;99.90;;;;;;4991092;28;20429;-66
2023/06/29 06:32:44;;;;;;;5.47;3.58;;;14.80;99.90;;;;;;4989521;28;20047;-66
2023/06/29 06:35:12;;;;;;;6.68;3.33;;;15.00;99.90;;;;;;4995636;28;20060;-66
2023/06/29 06:37:39;;;;;;;9.13;3.95;;;15.20;99.90;;;;;;4994264;28;20042;-66
2023/06/29 06:40:09;;;;;;;7.00;3.78;;;15.40;99.90;;;;;;4993551;28;20052;-66
2023/06/29 06:42:36;;;;;;;7.55;3.63;;;15.50;99.90;;;;;;4994927;28;20038;-66
2023/06/29 06:45:04;;;;;;;10.20;3.78;;;15.70;99.90;;;;;;4995133;28;20039;-66
2023/06/29 06:47:33;;;;;;;5.35;3.15;;;15.80;99.90;;;;;;4995244;28;20038;-66
2023/06/29 06:50:00;;;;;;;5.13;3.30;;;16.10;99.90;;;;;;4993605;28;20047;-66
2023/06/29 06:52:27;;;;;;;5.55;3.47;;;16.20;99.90;;;;;;4997577;28;20588;-66
2023/06/29 06:54:56;;;;;;;7.90;3.13;;;16.40;99.90;;;;;;4994964;28;20518;-66
2023/06/29 06:57:23;;;;;;;5.28;3.33;;;16.60;99.90;;;;;;4995229;28;20077;-66
2023/06/29 06:59:49;;;;;;;7.63;3.25;;;16.80;99.90;;;;;;4993828;28;20547;-66
2023/06/29 07:02:17;;;;;;;5.40;3.50;;;16.90;99.90;;;;;;4994999;28;20122;-66
2023/06/29 07:04:44;;;;;;;;;;;17.10;99.90;;;;;;4993545;28;20523;-66
2023/06/29 07:07:11;;;;;;;6.75;2.78;;;17.10;99.90;;;;;;4994889;28;19922;-66
2023/06/29 07:09:38;;;;;;;7.18;3.20;;;17.20;99.90;;;;;;4993848;28;20046;-66
2023/06/29 07:12:06;;;;;;;5.70;2.78;;;17.30;99.90;;;;;;4994933;28;20527;-66
2023/06/29 07:14:32;;;;;;;5.18;2.58;;;17.50;99.90;;;;;;4993402;28;20050;-66
2023/06/29 07:16:59;;;;;;;3.42;2.15;;;17.70;99.90;;;;;;4994632;28;20050;-66
2023/06/29 07:19:26;;;;;;;5.15;3.22;;;17.80;99.90;;;;;;4994320;28;20427;-66
2023/06/29 07:21:56;;;;;;;5.05;2.40;;;17.90;99.90;;;;;;4993510;28;20042;-66
2023/06/29 07:24:26;;;;;;;4.15;3.05;;;18.10;99.90;;;;;;4994329;28;20538;-66
2023/06/29 07:26:52;;;;;;;8.80;2.60;;;18.40;99.90;;;;;;4994303;28;20037;-66
2023/06/29 07:29:19;;;;;;;3.42;2.25;;;18.50;99.90;;;;;;4994672;28;20100;-66
2023/06/29 07:31:46;;;;;;;3.85;2.50;;;18.60;99.90;;;;;;4993166;28;20038;-66
2023/06/29 07:34:14;;;;;;;4.07;2.55;;;18.70;99.90;;;;;;4993759;28;20046;-66
2023/06/29 07:36:40;;;;;;;5.18;2.15;;;18.80;99.90;;;;;;4991714;28;20050;-66
2023/06/29 07:39:07;;;;;;;3.15;2.35;;;19.00;99.90;;;;;;4992939;28;20089;-66
2023/06/29 07:41:34;;;;;;;4.47;2.72;;;18.90;99.90;;;;;;4993173;28;20043;-66
2023/06/29 07:44:01;;;;;;;4.75;2.72;;;19.00;99.90;;;;;;4993560;28;20045;-66
2023/06/29 07:46:28;;;;;;;4.53;2.60;;;19.00;99.90;;;;;;4992977;28;20043;-66
2023/06/29 07:48:55;;;;;;;4.75;2.53;;;19.10;99.90;;;;;;4994214;28;20038;-66
2023/06/29 07:51:22;;;;;;;;;;;19.40;99.90;;;;;;4993397;28;20043;-66
2023/06/29 07:53:50;;;;;;;3.13;2.20;;;19.50;99.90;;;;;;4993286;28;19925;-66
2023/06/29 07:56:17;;;;;;;3.92;2.90;;;19.50;99.90;;;;;;4993778;28;20050;-66
2023/06/29 07:58:44;;;;;;;4.18;2.38;;;19.70;99.90;;;;;;4993062;28;20130;-66
2023/06/29 08:01:11;;;;;;;3.65;2.72;;;19.90;99.90;;;;;;4992887;28;20039;-66
2023/06/29 08:03:39;;;;;;;6.30;2.40;;;19.90;99.90;;;;;;4993114;28;20049;-66
2023/06/29 08:06:26;;;;;;;2.83;2.40;;;19.90;99.90;;;;;;4992116;28;20097;-67
2023/06/29 08:08:56;;;;;;;3.58;2.58;;;20.20;99.90;;;;;;4986334;28;20043;-67
2023/06/29 08:11:23;;;;;;;;;;;20.40;99.90;;;;;;4993010;28;20042;-67
2023/06/29 08:13:50;;;;;;;9.57;2.70;;;20.60;99.90;;;;;;4993233;28;19921;-67
2023/06/29 08:16:16;;;;;;;6.85;2.60;;;20.70;99.90;;;;;;4992168;28;20058;-67
2023/06/29 08:18:43;;;;;;;3.78;2.40;;;20.80;99.90;;;;;;4993685;28;20125;-66
2023/06/29 08:21:10;;;;;;;4.35;2.60;;;20.90;99.90;;;;;;4991260;28;20050;-66
2023/06/29 08:23:37;;;;;;;3.58;2.45;;;20.90;99.90;;;;;;4990441;28;21338;-67
2023/06/29 08:26:04;;;;;;;3.00;2.40;;;20.90;99.90;;;;;;4993678;28;20047;-66
2023/06/29 08:28:31;;;;;;;2.45;2.25;;;21.10;99.90;;;;;;4993034;28;20048;-66
2023/06/29 08:30:58;;;;;;;8.45;2.80;;;21.30;99.90;;;;;;4993507;28;20084;-66
2023/06/29 08:33:25;;;;;;;5.10;2.63;;;21.30;99.90;;;;;;4991285;28;20049;-67
2023/06/29 08:35:52;;;;;;;5.45;2.63;;;21.40;99.90;;;;;;4993251;28;20058;-67
2023/06/29 08:38:18;;;;;;;7.68;2.13;;;21.50;99.90;;;;;;4991476;28;20398;-67
2023/06/29 08:40:47;;;;;;;3.92;2.10;;;21.70;99.90;;;;;;4992933;28;20089;-67
2023/06/29 08:43:18;;;;;;;5.05;2.45;;;21.70;99.90;;;;;;4991935;28;20046;-67
2023/06/29 08:45:45;;;;;;;4.50;2.40;;;21.70;99.90;;;;;;4992656;28;20044;-66
2023/06/29 08:48:13;;;;;;;5.38;2.58;;;21.90;99.90;;;;;;4992135;28;20049;-66
2023/06/29 08:50:52;;;;;;;5.50;2.55;;;21.90;99.90;;;;;;4992309;28;20046;-66
2023/06/29 08:53:20;;;;;;;4.03;2.20;;;22.00;99.90;;;;;;4992039;28;20069;-66
2023/06/29 08:55:50;;;;;;;4.38;2.08;;;22.10;99.90;;;;;;4991088;28;20169;-66
2023/06/29 08:58:20;;;;;;;5.43;2.65;;;22.20;99.70;;;;;;4992691;28;20046;-66
2023/06/29 09:00:47;;;;;;;4.50;2.38;;;22.30;98.80;;;;;;4992470;28;20034;-67
2023/06/29 09:03:14;;;;;;;3.65;2.05;;;22.40;99.80;;;;;;4992560;28;20042;-67
2023/06/29 09:05:45;;;;;;;7.35;2.10;;;22.60;99.30;;;;;;4990864;28;20084;-67
2023/06/29 09:08:12;;;;;;;4.90;2.38;;;22.60;98.60;;;;;;4992917;28;20049;-67
2023/06/29 09:10:40;;;;;;;3.80;2.53;;;22.80;98.90;;;;;;4990805;28;20278;-67
2023/06/29 09:13:09;;;;;;;5.82;2.38;;;22.80;98.40;;;;;;4992367;28;20038;-67
2023/06/29 09:15:39;;;;;;;4.40;2.42;;;22.80;98.90;;;;;;4991494;28;20112;-66
2023/06/29 09:18:07;;;;;;;3.53;2.53;;;23.00;99.90;;;;;;4991543;28;20451;-66
2023/06/29 09:20:34;;;;;;;5.55;2.55;;;23.10;99.90;;;;;;4992043;28;20070;-66
2023/06/29 09:23:04;;;;;;;5.13;2.85;;;23.10;99.90;;;;;;4982385;28;20122;-67
2023/06/29 09:25:35;;;;;;;4.57;2.60;;;23.10;99.90;;;;;;4992465;28;20046;-66
2023/06/29 09:28:07;;;;;;;4.45;2.70;;;23.00;99.90;;;;;;4985797;28;20452;-66
2023/06/29 09:30:37;;;;;;;3.60;2.40;;;23.10;99.90;;;;;;4992115;28;20487;-67
2023/06/29 09:33:12;;;;;;;2.65;2.03;;;23.20;99.90;;;;;;4994507;28;20069;-67
2023/06/29 09:35:44;;;;;;;5.20;2.40;;;23.30;99.90;;;;;;4990789;28;20043;-67
2023/06/29 09:38:12;;;;;;;5.20;2.67;;;23.30;99.90;;;;;;4976934;28;20034;-67
2023/06/29 09:40:45;;;;;;;3.63;2.40;;;23.40;99.70;;;;;;4980227;28;20041;-67
2023/06/29 09:43:26;;;;;;;4.07;2.72;;;23.60;99.70;;;;;;4991719;28;20510;-67
2023/06/29 09:46:06;;;;;;;6.97;2.78;;;23.80;99.40;;;;;;4991070;28;20050;-67
2023/06/29 09:48:33;;;;;;;3.05;2.30;;;23.70;98.70;;;;;;4992226;28;20439;-67
2023/06/29 09:51:04;;;;;;;4.18;2.30;;;23.80;98.90;;;;;;4990814;28;20050;-67
2023/06/29 09:53:32;;;;;;;5.15;2.53;;;23.80;98.80;;;;;;4991593;28;20522;-67
2023/06/29 09:56:01;;;;;;;3.58;1.83;;;23.70;98.80;;;;;;4983920;28;20403;-67
2023/06/29 09:58:30;;;;;;;4.13;2.38;;;23.80;98.70;;;;;;4990782;28;20046;-67
2023/06/29 10:01:00;;;;;;;6.45;2.05;;;24.00;98.20;;;;;;4991382;28;20053;-67
2023/06/29 10:03:27;;;;;;;5.72;2.40;;;24.00;98.20;;;;;;4990439;28;20057;-67
2023/06/29 10:05:59;;;;;;;3.40;2.25;;;24.30;98.70;;;;;;4991344;28;20068;-67
2023/06/29 10:08:28;;;;;;;9.18;2.30;;;24.40;98.70;;;;;;4990348;28;20049;-67
2023/06/29 10:11:01;;;;;;;6.53;2.45;;;24.20;97.40;;;;;;4991284;28;20038;-67
2023/06/29 10:13:33;;;;;;;2.80;2.10;;;24.30;98.70;;;;;;4989319;28;20084;-67
2023/06/29 10:16:02;;;;;;;4.30;1.95;;;24.60;96.60;;;;;;4991768;28;20042;-67
2023/06/29 10:18:34;;;;;;;5.05;2.38;;;24.80;96.50;;;;;;4991367;28;20078;-66
2023/06/29 10:21:01;;;;;;;3.72;2.30;;;24.90;95.20;;;;;;4990184;28;20042;-66
2023/06/29 10:23:29;;;;;;;2.80;2.50;;;24.90;96.50;;;;;;4991320;28;20061;-66
2023/06/29 10:25:56;;;;;;;5.25;2.15;;;25.00;98.10;;;;;;4991167;28;20483;-67
2023/06/29 10:28:23;;;;;;;;;;;25.00;95.40;;;;;;4992143;28;20447;-67
2023/06/29 10:30:53;;;;;;;4.72;2.33;;;25.10;95.60;;;;;;4990602;28;20465;-67
2023/06/29 10:33:23;;;;;;;2.70;2.30;;;25.30;95.40;;;;;;4991292;28;20129;-67
2023/06/29 10:36:03;;;;;;;5.13;2.17;;;25.30;94.70;;;;;;4990450;28;20042;-67
2023/06/29 10:38:34;;;;;;;4.13;2.30;;;25.40;95.10;;;;;;4991259;28;20046;-67
2023/06/29 10:41:05;;;;;;;3.47;1.77;;;25.40;93.30;;;;;;4991215;28;20408;-67
2023/06/29 10:43:54;;;;;;;3.65;2.08;;;25.70;94.40;;;;;;4989874;28;20047;-67
2023/06/29 10:46:43;;;;;;;4.07;2.05;;;25.90;92.80;;;;;;4986320;28;20125;-67
2023/06/29 10:49:23;;;;;;;3.00;2.15;;;26.00;91.50;;;;;;4991608;28;20098;-67
2023/06/29 10:52:02;;;;;;;3.10;1.80;;;26.30;90.70;;;;;;4990878;28;20940;-67
2023/06/29 10:54:30;;;;;;;3.65;2.15;;;26.20;91.00;;;;;;4990994;28;20043;-67
2023/06/29 10:57:07;;;;;;;2.95;1.90;;;26.30;90.90;;;;;;4991170;28;20133;-67
2023/06/29 10:59:36;;;;;;;3.15;1.73;;;26.30;89.70;;;;;;4989548;28;20039;-66
2023/06/29 11:02:04;;;;;;;6.38;2.30;;;26.30;89.10;;;;;;4991138;28;20038;-66
2023/06/29 11:04:31;;;;;;;3.88;1.90;;;26.30;87.10;;;;;;4990780;28;20448;-67
2023/06/29 11:07:08;;;;;;;3.28;1.67;;;26.30;87.20;;;;;;4990933;28;20478;-67
2023/06/29 11:09:34;;;;;;;4.15;2.05;;;26.40;87.40;;;;;;4990456;28;20406;-67
2023/06/29 11:12:01;;;;;;;3.15;2.10;;;26.50;85.30;;;;;;4990686;28;20053;-67
2023/06/29 11:14:28;;;;;;;4.57;1.92;;;26.40;85.60;;;;;;4982865;28;20045;-67
2023/06/29 11:16:55;;;;;;;;;;;26.60;85.50;;;;;;4991387;28;20050;-67
2023/06/29 11:19:27;;;;;;;3.35;2.10;;;26.70;84.00;;;;;;4991260;28;20326;-67
2023/06/29 11:21:55;;;;;;;3.35;2.00;;;26.60;84.50;;;;;;4994443;28;20538;-67
2023/06/29 11:24:22;;;;;;;4.75;2.17;;;26.70;84.10;;;;;;4994132;28;20121;-67
2023/06/29 11:26:49;;;;;;;2.83;1.98;;;26.80;81.90;;;;;;4992742;28;20034;-67
2023/06/29 11:29:15;;;;;;;;;;;26.90;78.40;;;;;;4995081;28;20034;-67
2023/06/29 11:31:42;;;;;;;4.85;2.40;;;26.90;79.00;;;;;;4994070;28;20290;-67
2023/06/29 11:34:12;;;;;;;;;;;27.00;80.50;;;;;;4994782;28;20112;-67
2023/06/29 11:36:39;;;;;;;3.15;2.20;;;27.10;81.20;;;;;;4993956;28;19921;-67
2023/06/29 11:39:11;;;;;;;4.10;2.00;;;27.30;85.90;;;;;;4994561;28;20050;-67
2023/06/29 11:41:40;;;;;;;3.95;2.20;;;27.40;83.00;;;;;;4991319;28;20080;-67
2023/06/29 11:44:07;;;;;;;7.35;2.30;;;27.60;81.80;;;;;;4994030;28;20138;-67
2023/06/29 11:46:39;;;;;;;5.28;2.83;;;27.60;87.90;;;;;;4993151;28;20121;-67
2023/06/29 11:49:06;;;;;;;7.28;2.70;;;27.60;84.30;;;;;;4993069;28;20042;-67
2023/06/29 11:51:38;;;;;;;4.32;2.50;;;27.60;86.10;;;;;;4993114;28;20042;-67
2023/06/29 11:54:07;;;;;;;5.35;2.90;;;27.40;86.70;;;;;;4992310;28;20129;-67
2023/06/29 11:56:38;;;;;;;3.22;2.63;;;27.40;89.50;;;;;;4993340;28;20044;-67
2023/06/29 11:59:07;;;;;;;5.00;3.10;;;27.50;87.10;;;;;;4993449;28;20039;-67
2023/06/29 12:01:35;;;;;;;5.30;3.05;;;27.80;86.10;;;;;;4993992;28;20399;-67
2023/06/29 12:04:14;;;;;;;4.50;3.03;;;27.90;84.20;;;;;;4992297;28;20046;-67
2023/06/29 12:06:52;;;;;;;4.03;3.10;;;27.90;85.10;;;;;;4997017;28;20510;-67
2023/06/29 12:09:19;;;;;;;;;;;27.90;86.80;;;;;;4994086;28;20039;-67
2023/06/29 12:11:58;;;;;;;8.00;3.17;;;27.90;85.60;;;;;;4992166;28;19922;-67
2023/06/29 12:14:29;;;;;;;6.60;3.30;;;27.80;86.90;;;;;;4992982;28;20050;-67
2023/06/29 12:16:57;;;;;;;4.30;2.70;;;27.80;86.30;;;;;;4993291;28;20447;-67
2023/06/29 12:19:33;;;;;;;7.88;2.92;;;28.00;88.90;;;;;;4993228;28;20034;-67
2023/06/29 12:22:00;;;;;;;4.55;2.40;;;27.90;88.40;;;;;;4993285;28;20070;-67
2023/06/29 12:24:27;;;;;;;5.78;3.20;;;27.90;89.00;;;;;;4993000;28;20408;-67
2023/06/29 12:26:54;;;;;;;8.20;3.08;;;27.90;87.10;;;;;;4993439;28;20042;-67
2023/06/29 12:29:21;;;;;;;4.13;2.65;;;27.90;86.40;;;;;;4993438;28;20046;-67
2023/06/29 12:31:47;;;;;;;4.22;2.72;;;27.90;90.00;;;;;;4990895;28;20500;-67
2023/06/29 12:34:14;;;;;;;5.68;2.78;;;27.80;89.90;;;;;;4993061;28;20050;-67
2023/06/29 12:36:41;;;;;;;4.93;2.78;;;28.00;89.30;;;;;;4993292;28;20045;-67
2023/06/29 12:39:08;;;;;;;5.43;2.90;;;28.00;86.70;;;;;;4993464;28;20373;-67
2023/06/29 12:41:35;;;;;;;3.13;2.63;;;28.10;88.80;;;;;;4992129;28;20510;-67
2023/06/29 12:44:02;;;;;;;8.90;3.63;;;28.30;86.90;;;;;;4992705;28;20134;-67
2023/06/29 12:46:28;;;;;;;;;;;28.30;86.20;;;;;;4993318;28;20034;-67
2023/06/29 12:48:58;;;;;;;5.38;2.80;;;28.20;86.70;;;;;;4993058;28;20391;-67
2023/06/29 12:51:24;;;;;;;3.55;2.80;;;28.10;88.20;;;;;;4992456;28;20042;-66
2023/06/29 12:53:53;;;;;;;3.75;2.63;;;28.00;89.70;;;;;;4991506;28;20042;-66
2023/06/29 12:56:20;;;;;;;4.75;2.50;;;28.00;88.70;;;;;;4993010;28;20042;-66